WetterOnline ( https://www.wetteronline.de )

Wetter aktuell Döttinger Höhe

Aktuelles Wetter: Nürburg-Barweiler (488m)

6-stündlich | Neueste Meldungen
Ortszeit Temperatur Wetter
Sa, 12.06. 20:00 18.6° C leicht bewölkt
Sa, 12.06. 14:00 18.0° C bedeckt
Sa, 12.06. 8:00 15.6° C leicht bewölkt
Sa, 12.06. 2:00 16.5° C wolkig
Fr, 11.06. 20:00 22.2° C leicht bewölkt
Fr, 11.06. 14:00 22.9° C bewölkt
Fr, 11.06. 8:00 16.0° C wolkenlos
Fr, 11.06. 2:00 16.4° C wolkig
Ortszeit Temperatur Wetter
So, 13.06. 1:30 11.2° C wolkenlos
So, 13.06. 1:20 11.2° C wolkenlos
So, 13.06. 1:10 11.2° C wolkenlos
So, 13.06. 1:00 11.2° C wolkenlos
So, 13.06. 0:50 11.2° C wolkenlos
So, 13.06. 0:40 11.6° C wolkenlos
So, 13.06. 0:30 12.0° C fast wolkenlos
So, 13.06. 0:00 12.5° C leicht bewölkt
Sa, 12.06. 23:30 13.3° C wolkig
Sa, 12.06. 23:00 14.1° C wolkig
Sa, 12.06. 22:30 14.7° C wolkig
Sa, 12.06. 22:00 14.8° C leicht bewölkt
Ortszeit Relative Feuchte Sichtweite
Sa, 12.06. 20:00 59% 50 km
Sa, 12.06. 14:00 73% 50 km
Sa, 12.06. 8:00 87% 19 km
Sa, 12.06. 2:00 80% 45 km
Fr, 11.06. 20:00 61% 50 km
Fr, 11.06. 14:00 53% 50 km
Fr, 11.06. 8:00 76% 30 km
Fr, 11.06. 2:00 76% 45 km
Ortszeit Relative Feuchte Sichtweite
So, 13.06. 1:30 78% 40 km
So, 13.06. 1:20 78% -
So, 13.06. 1:10 79% -
So, 13.06. 1:00 80% 50 km
So, 13.06. 0:50 80% -
So, 13.06. 0:40 77% -
So, 13.06. 0:30 75% 50 km
So, 13.06. 0:00 73% 50 km
Sa, 12.06. 23:30 70% 55 km
Sa, 12.06. 23:00 68% 50 km
Sa, 12.06. 22:30 67% 50 km
Sa, 12.06. 22:00 69% 45 km
Ortszeit Niederschlagsmenge Niederschlagsart
Sa, 12.06. 20:00 0.0 l/m2 in 12 Std. -
Sa, 12.06. 14:00 0.0 l/m2 in 6 Std. -
Sa, 12.06. 8:00 0.0 l/m2 in 12 Std. -
Sa, 12.06. 2:00 0.0 l/m2 in 6 Std. -
Fr, 11.06. 20:00 0.0 l/m2 in 12 Std. -
Fr, 11.06. 14:00 0.0 l/m2 in 6 Std. -
Fr, 11.06. 8:00 0.0 l/m2 in 12 Std. -
Fr, 11.06. 2:00 0.0 l/m2 in 6 Std. -
Ortszeit Niederschlagsmenge Niederschlagsart
So, 13.06. 1:30 0.0 l/m2 in 1 Std. -
So, 13.06. 1:20 keine Meldung -
So, 13.06. 1:10 keine Meldung -
So, 13.06. 1:00 0.0 l/m2 in 1 Std. -
So, 13.06. 0:50 keine Meldung -
So, 13.06. 0:40 keine Meldung -
So, 13.06. 0:30 0.0 l/m2 in 1 Std. -
So, 13.06. 0:00 0.0 l/m2 in 1 Std. -
Sa, 12.06. 23:30 0.0 l/m2 in 1 Std. -
Sa, 12.06. 23:00 0.0 l/m2 in 1 Std. -
Sa, 12.06. 22:30 0.0 l/m2 in 1 Std. -
Sa, 12.06. 22:00 0.0 l/m2 in 1 Std. -
Ortszeit Stärke Spitze Richtung
km/h Bft. km/h Grad Sektor
Sa, 12.06. 20:00 14 3 36 320° NW
Sa, 12.06. 14:00 14 3 29 290° W
Sa, 12.06. 8:00 7 2 14 250° W
Sa, 12.06. 2:00 7 2 18 250° W
Fr, 11.06. 20:00 14 3 22 360° N
Fr, 11.06. 14:00 11 2 22 350° N
Fr, 11.06. 8:00 4 1 7 250° W
Fr, 11.06. 2:00 4 1 18 230° SW
Ortszeit Stärke Spitze Richtung
km/h Bft. km/h Grad Sektor
So, 13.06. 1:30 15 3 24 350° N
So, 13.06. 1:20 15 3 - 350° N
So, 13.06. 1:10 14 3 - 350° N
So, 13.06. 1:00 11 2 22 350° N
So, 13.06. 0:50 11 2 - 350° N
So, 13.06. 0:40 9 2 - 360° N
So, 13.06. 0:30 13 3 22 10° N
So, 13.06. 0:00 13 3 26 340° N
Sa, 12.06. 23:30 17 3 26 350° N
Sa, 12.06. 23:00 17 3 28 350° N
Sa, 12.06. 22:30 14 3 25 340° N
Sa, 12.06. 22:00 11 2 25 340° N
Ortszeit Untergrenze Bedeckung Gattung
total tief tief mittel hoch
Sa, 12.06. 20:00 1080 m 4/8 4/8 - - -
Sa, 12.06. 14:00 690 m 8/8 8/8 - - -
Sa, 12.06. 8:00 240 m 3/8 3/8 - - -
Sa, 12.06. 2:00 7500 m 7/8 0/8 - - -
Fr, 11.06. 20:00 9000 m 7/8 0/8 - - -
Fr, 11.06. 14:00 1500 m 7/8 7/8 - - -
Fr, 11.06. 8:00 - 0/8 0/8 - - -
Fr, 11.06. 2:00 1500 m 5/8 4/8 - - -
Ortszeit Bedeckungsgrad in Achtel und Wolkenuntergrenze
So, 13.06. 1:30 keine Wolken
So, 13.06. 1:20 keine Wolken
So, 13.06. 1:10 keine Wolken
So, 13.06. 1:00 keine Wolken
So, 13.06. 0:50 keine Wolken
So, 13.06. 0:40 keine Wolken
So, 13.06. 0:30 1(10500m)
So, 13.06. 0:00 5(10500m) 6(10500m)
Sa, 12.06. 23:30 4(9000m) 8(10500m)
Sa, 12.06. 23:00 4(10500m) 8(10500m)
Sa, 12.06. 22:30 2(1140m) 7(10500m) 7(10500m)
Sa, 12.06. 22:00 2(1170m) 4(10500m) 6(10500m)
Ortszeit Luftdruck NN (hPa) Tendenz (hPa in 3 Std.)
Sa, 12.06. 20:00 1022 + 0,5
Sa, 12.06. 14:00 1021 + 0,7
Sa, 12.06. 8:00 1020 + 0,5
Sa, 12.06. 2:00 1020 + 0,2
Fr, 11.06. 20:00 1018 - 0,1
Fr, 11.06. 14:00 1019 - 0,3
Fr, 11.06. 8:00 1020 + 0,2
Fr, 11.06. 2:00 1020 - 0,1
Ortszeit Luftdruck NN (hPa) Tendenz (hPa in 3 Std.)
So, 13.06. 1:30 1026 + 1,4
So, 13.06. 1:20 1026 keine Meldung
So, 13.06. 1:10 1026 keine Meldung
So, 13.06. 1:00 1026 + 1,6
So, 13.06. 0:50 1026 keine Meldung
So, 13.06. 0:40 1026 keine Meldung
So, 13.06. 0:30 1026 + 1,7
So, 13.06. 0:00 1026 + 1,7
Sa, 12.06. 23:30 1025 + 1,8
Sa, 12.06. 23:00 1025 + 1,7
Sa, 12.06. 22:30 1024 + 1,5
Sa, 12.06. 22:00 1024 + 1,5
Ortszeit Schneehöhe (cm)
Sa, 12.06. 20:00 -
Sa, 12.06. 14:00 -
Sa, 12.06. 8:00 -
Sa, 12.06. 2:00 -
Fr, 11.06. 20:00 -
Fr, 11.06. 14:00 -
Fr, 11.06. 8:00 -
Fr, 11.06. 2:00 -
Ortszeit Schneehöhe (cm)
So, 13.06. 1:30 -
So, 13.06. 1:20 -
So, 13.06. 1:10 -
So, 13.06. 1:00 -
So, 13.06. 0:50 -
So, 13.06. 0:40 -
So, 13.06. 0:30 -
So, 13.06. 0:00 -
Sa, 12.06. 23:30 -
Sa, 12.06. 23:00 -
Sa, 12.06. 22:30 -
Sa, 12.06. 22:00 -
Link zu dieser Seite / Seite empfehlen

Das Wetter in ...